createdAt,value
2022-10-05T00:01:27.534Z,100518.02
2022-10-05T00:04:01.911Z,100516.14
2022-10-05T00:06:30.692Z,100520.52
2022-10-05T00:09:00.899Z,100525.59
2022-10-05T00:11:29.702Z,100524.67
2022-10-05T00:13:58.936Z,100516.85
2022-10-05T00:16:29.030Z,100501.36
2022-10-05T00:18:59.929Z,100486.58
2022-10-05T00:21:29.480Z,100478.52
2022-10-05T00:24:00.610Z,100474.09
2022-10-05T00:26:33.301Z,100467.38
2022-10-05T00:29:06.520Z,100467.32
2022-10-05T00:31:36.490Z,100466.63
2022-10-05T00:34:05.034Z,100460.71
2022-10-05T00:36:33.418Z,100453.98
2022-10-05T00:39:03.451Z,100448.73
2022-10-05T00:41:51.836Z,100444.06
2022-10-05T00:44:32.952Z,100437.58
2022-10-05T00:47:10.865Z,100430.27
2022-10-05T00:50:17.687Z,100425.45
2022-10-05T00:52:56.217Z,100423.57
2022-10-05T00:55:37.488Z,100430.84
2022-10-05T00:58:17.015Z,100430.27
2022-10-05T01:00:53.940Z,100431.29
2022-10-05T01:03:30.601Z,100434.57
2022-10-05T01:06:09.855Z,100441.86
2022-10-05T01:08:50.487Z,100443.87
2022-10-05T01:11:26.392Z,100446.38
2022-10-05T01:14:03.222Z,100447.67
2022-10-05T01:16:42.370Z,100441.55
2022-10-05T01:19:31.075Z,100431.59
2022-10-05T01:22:07.737Z,100424.31
2022-10-05T01:24:49.675Z,100430.65
2022-10-05T01:27:34.924Z,100423.20
2022-10-05T01:30:10.576Z,100416.77
2022-10-05T01:32:44.864Z,100411.25
2022-10-05T01:35:24.111Z,100414.11
2022-10-05T01:38:04.396Z,100410.87
2022-10-05T01:40:38.479Z,100407.28
2022-10-05T01:43:14.633Z,100404.16
2022-10-05T01:45:54.657Z,100401.24
2022-10-05T01:48:32.742Z,100404.86
2022-10-05T01:51:08.698Z,100399.39
2022-10-05T01:53:49.517Z,100398.75
2022-10-05T01:56:29.926Z,100393.63
2022-10-05T01:59:11.538Z,100390.66
2022-10-05T02:01:48.450Z,100395.67
2022-10-05T02:04:56.604Z,100390.67
2022-10-05T02:07:16.595Z,100400.78
2022-10-05T02:09:49.999Z,100400.20
2022-10-05T02:12:22.096Z,100402.98
2022-10-05T02:14:57.480Z,100400.83
2022-10-05T02:17:32.101Z,100405.90
2022-10-05T02:20:03.525Z,100407.73
2022-10-05T02:22:36.594Z,100412.95
2022-10-05T02:25:10.938Z,100416.42
2022-10-05T02:27:44.516Z,100425.30
2022-10-05T02:30:16.611Z,100435.05
2022-10-05T02:32:53.984Z,100430.25
2022-10-05T02:35:22.625Z,100427.55
2022-10-05T02:37:59.676Z,100425.02
2022-10-05T02:40:40.131Z,100428.08
2022-10-05T02:43:20.626Z,100428.14
2022-10-05T02:45:57.523Z,100434.06
2022-10-05T02:48:36.567Z,100433.64
2022-10-05T02:51:19.765Z,100433.84
2022-10-05T02:53:59.985Z,100426.40
2022-10-05T02:56:36.123Z,100421.42
2022-10-05T02:59:10.807Z,100418.54
2022-10-05T03:01:47.439Z,100395.02
2022-10-05T03:04:25.843Z,100386.71
2022-10-05T03:20:16.354Z,100385.48
2022-10-05T03:22:56.273Z,100391.67
2022-10-05T03:25:55.899Z,100385.48
2022-10-05T03:28:33.801Z,100382.86
2022-10-05T03:31:15.950Z,100386.70
2022-10-05T03:33:53.765Z,100390.58
2022-10-05T03:36:34.155Z,100392.63
2022-10-05T03:39:11.691Z,100385.84
2022-10-05T03:41:48.824Z,100378.18
2022-10-05T03:44:32.940Z,100390.58
2022-10-05T03:47:25.773Z,100389.09
2022-10-05T03:50:17.373Z,100393.39
2022-10-05T03:52:56.077Z,100394.56
2022-10-05T03:55:34.921Z,100382.99
2022-10-05T03:58:14.833Z,100390.66
2022-10-05T04:00:54.122Z,100399.58
2022-10-05T04:03:31.440Z,100399.54
2022-10-05T04:06:10.298Z,100394.38
2022-10-05T04:08:50.753Z,100390.63
2022-10-05T04:11:29.963Z,100382.95
2022-10-05T04:14:08.244Z,100383.06
2022-10-05T04:16:46.086Z,100384.40
2022-10-05T04:19:23.673Z,100382.30
2022-10-05T04:22:06.315Z,100378.17
2022-10-05T04:24:42.235Z,100377.05
2022-10-05T04:27:20.733Z,100374.26
2022-10-05T04:29:59.520Z,100368.21
2022-10-05T04:32:38.960Z,100372.29
2022-10-05T04:35:40.171Z,100366.64
2022-10-05T04:38:28.391Z,100368.20
2022-10-05T04:41:14.597Z,100372.11
2022-10-05T04:43:57.591Z,100377.26
2022-10-05T04:46:45.164Z,100378.41
2022-10-05T04:49:42.540Z,100372.29
2022-10-05T04:52:23.429Z,100367.63
2022-10-05T04:55:13.512Z,100370.57
2022-10-05T04:57:57.670Z,100374.13
2022-10-05T05:00:39.219Z,100374.11
2022-10-05T05:03:39.375Z,100379.02
2022-10-05T05:06:24.569Z,100385.61
2022-10-05T05:09:15.163Z,100385.52
2022-10-05T05:12:03.904Z,100374.36
2022-10-05T05:14:47.795Z,100368.11
2022-10-05T05:17:33.049Z,100368.35
2022-10-05T05:20:18.435Z,100365.57
2022-10-05T05:22:58.598Z,100361.71
2022-10-05T05:25:41.492Z,100356.53
2022-10-05T05:28:26.552Z,100355.67
2022-10-05T05:31:06.744Z,100363.41
2022-10-05T05:33:52.160Z,100366.30
2022-10-05T05:36:39.278Z,100362.19
2022-10-05T05:39:24.817Z,100358.16
2022-10-05T05:42:02.870Z,100359.79
2022-10-05T05:44:43.369Z,100366.10
2022-10-05T05:47:21.703Z,100361.06
2022-10-05T05:50:07.814Z,100362.21
2022-10-05T05:52:45.980Z,100362.73
2022-10-05T05:55:29.726Z,100355.70
2022-10-05T05:58:05.643Z,100355.29
2022-10-05T06:00:44.116Z,100357.60
2022-10-05T06:03:22.482Z,100358.57
2022-10-05T06:05:58.834Z,100359.36
2022-10-05T06:08:34.959Z,100356.05
2022-10-05T06:11:18.732Z,100355.90
2022-10-05T06:13:51.749Z,100357.42
2022-10-05T06:16:29.734Z,100353.70
2022-10-05T06:19:06.878Z,100351.83
2022-10-05T06:21:45.472Z,100348.69
2022-10-05T06:24:22.963Z,100353.08
2022-10-05T06:27:24.533Z,100358.78
2022-10-05T06:30:07.637Z,100350.80
2022-10-05T06:33:05.511Z,100351.44
2022-10-05T06:35:53.756Z,100358.05
2022-10-05T06:38:44.988Z,100360.54
2022-10-05T06:41:28.576Z,100360.70
2022-10-05T06:44:05.270Z,100366.19
2022-10-05T06:47:07.512Z,100359.36
2022-10-05T06:49:59.548Z,100363.13
2022-10-05T06:52:56.832Z,100360.48
2022-10-05T06:55:38.773Z,100356.21
2022-10-05T06:58:26.527Z,100357.92
2022-10-05T07:01:06.112Z,100365.02
2022-10-05T07:03:48.420Z,100366.55
2022-10-05T07:06:26.600Z,100367.75
2022-10-05T07:09:14.311Z,100370.66
2022-10-05T07:12:04.566Z,100370.02
2022-10-05T07:14:44.531Z,100372.63
2022-10-05T07:17:36.666Z,100376.60
2022-10-05T07:20:20.199Z,100379.39
2022-10-05T07:23:04.932Z,100375.42
2022-10-05T07:25:43.222Z,100371.59
2022-10-05T07:28:22.053Z,100371.98
2022-10-05T07:31:00.016Z,100377.75
2022-10-05T07:33:41.143Z,100370.30
2022-10-05T07:36:38.368Z,100371.54
2022-10-05T07:39:18.073Z,100375.64
2022-10-05T07:41:56.240Z,100374.77
2022-10-05T07:44:37.660Z,100375.58
2022-10-05T07:47:17.094Z,100377.30
2022-10-05T07:49:56.564Z,100389.39
2022-10-05T07:52:34.865Z,100390.61
2022-10-05T07:55:17.991Z,100388.36
2022-10-05T07:57:55.583Z,100386.20
2022-10-05T08:00:41.604Z,100380.95
2022-10-05T08:03:25.098Z,100377.97
2022-10-05T08:05:58.969Z,100372.51
2022-10-05T08:08:39.575Z,100376.19
2022-10-05T08:11:18.180Z,100374.73
2022-10-05T08:13:55.870Z,100376.75
2022-10-05T08:16:31.108Z,100376.95
2022-10-05T08:19:09.221Z,100372.85
2022-10-05T08:21:46.189Z,100374.31
2022-10-05T08:24:31.976Z,100376.90
2022-10-05T08:27:06.589Z,100379.48
2022-10-05T08:29:44.521Z,100375.38
2022-10-05T08:32:23.945Z,100376.81
2022-10-05T08:35:00.784Z,100375.83
2022-10-05T08:37:38.337Z,100376.62
2022-10-05T08:40:31.034Z,100371.14
2022-10-05T08:43:17.727Z,100373.44
2022-10-05T08:46:24.390Z,100375.07
2022-10-05T08:49:20.121Z,100374.09
2022-10-05T08:52:25.231Z,100374.54
2022-10-05T08:55:16.572Z,100373.27
2022-10-05T08:58:13.221Z,100373.67
2022-10-05T09:00:56.024Z,100374.51
2022-10-05T09:03:51.858Z,100373.48
2022-10-05T09:06:35.862Z,100363.46
2022-10-05T09:09:26.819Z,100367.61
2022-10-05T09:12:18.930Z,100368.64
2022-10-05T09:15:01.516Z,100368.00
2022-10-05T09:18:11.843Z,100370.55
2022-10-05T09:20:54.236Z,100368.00
2022-10-05T09:23:40.345Z,100365.70
2022-10-05T09:26:42.951Z,100360.77
2022-10-05T09:29:57.788Z,100361.17
2022-10-05T09:33:09.911Z,100363.91
2022-10-05T09:36:11.109Z,100364.95
2022-10-05T09:39:08.438Z,100366.34
2022-10-05T09:42:05.885Z,100360.44
2022-10-05T09:45:03.429Z,100369.36
2022-10-05T09:48:07.722Z,100368.56
2022-10-05T09:51:04.881Z,100365.02
2022-10-05T09:53:55.367Z,100358.71
2022-10-05T09:56:53.931Z,100356.62
2022-10-05T09:59:48.729Z,100348.69
2022-10-05T10:02:42.435Z,100351.02
2022-10-05T10:05:40.134Z,100352.06
2022-10-05T10:08:27.842Z,100351.59
2022-10-05T10:11:15.577Z,100351.67
2022-10-05T10:14:02.774Z,100351.08
2022-10-05T10:17:05.409Z,100352.53
2022-10-05T10:20:16.529Z,100351.68
2022-10-05T10:23:15.443Z,100351.53
2022-10-05T10:26:16.399Z,100348.97
2022-10-05T10:29:11.357Z,100348.86
2022-10-05T10:32:03.916Z,100343.95
2022-10-05T10:35:07.835Z,100349.04
2022-10-05T10:37:58.673Z,100346.67
2022-10-05T10:40:43.280Z,100340.67
2022-10-05T10:43:43.842Z,100340.86
2022-10-05T10:46:34.485Z,100338.48
2022-10-05T10:49:26.453Z,100336.48
2022-10-05T10:52:07.166Z,100338.05
2022-10-05T10:55:04.930Z,100343.45
2022-10-05T10:57:48.252Z,100345.07
2022-10-05T11:00:41.802Z,100349.35
2022-10-05T11:03:52.991Z,100347.59
2022-10-05T11:06:47.767Z,100348.98
2022-10-05T11:09:54.576Z,100350.52
2022-10-05T11:12:53.693Z,100352.10
2022-10-05T11:16:01.948Z,100349.89
2022-10-05T11:18:48.233Z,100348.22
2022-10-05T11:21:31.923Z,100343.87
2022-10-05T11:24:48.636Z,100340.63
2022-10-05T11:27:38.247Z,100337.92
2022-10-05T11:30:26.822Z,100334.90
2022-10-05T11:33:44.728Z,100332.80
2022-10-05T11:36:40.803Z,100325.30
2022-10-05T11:39:33.188Z,100329.02
2022-10-05T11:42:39.789Z,100325.93
2022-10-05T11:45:33.089Z,100319.27
2022-10-05T11:48:23.208Z,100316.08
2022-10-05T11:51:25.224Z,100312.21
2022-10-05T11:54:17.633Z,100306.58
2022-10-05T11:56:57.029Z,100299.52
2022-10-05T11:59:36.289Z,100290.34
2022-10-05T12:02:33.135Z,100291.69
2022-10-05T12:05:18.390Z,100292.05
2022-10-05T12:08:06.668Z,100293.33
2022-10-05T12:10:45.980Z,100296.95
2022-10-05T12:13:28.976Z,100294.42
2022-10-05T12:16:06.312Z,100288.41
2022-10-05T12:19:01.210Z,100285.08
2022-10-05T12:21:38.118Z,100282.80
2022-10-05T12:24:25.943Z,100282.70
2022-10-05T12:27:03.921Z,100280.26
2022-10-05T12:29:43.862Z,100276.77
2022-10-05T12:32:22.316Z,100274.86
2022-10-05T12:35:02.232Z,100277.48
2022-10-05T12:37:52.785Z,100273.01
2022-10-05T12:40:35.045Z,100272.01
2022-10-05T12:43:16.802Z,100271.15
2022-10-05T12:46:04.046Z,100267.59
2022-10-05T12:48:52.588Z,100263.09
2022-10-05T12:51:35.542Z,100258.27
2022-10-05T12:54:20.050Z,100256.54
2022-10-05T12:56:58.109Z,100258.70
2022-10-05T12:59:41.230Z,100259.56
2022-10-05T13:02:30.373Z,100255.92
2022-10-05T13:05:13.928Z,100249.36
2022-10-05T13:07:59.782Z,100248.61
2022-10-05T13:10:37.235Z,100251.08
2022-10-05T13:13:38.476Z,100242.16
2022-10-05T13:16:30.019Z,100245.48
2022-10-05T13:19:22.221Z,100240.05
2022-10-05T13:22:08.573Z,100244.54
2022-10-05T13:24:49.456Z,100249.84
2022-10-05T13:27:27.835Z,100241.42
2022-10-05T13:30:06.738Z,100243.27
2022-10-05T13:32:45.855Z,100237.84
2022-10-05T13:35:30.796Z,100234.50
2022-10-05T13:38:19.760Z,100230.64
2022-10-05T13:41:04.364Z,100226.02
2022-10-05T13:43:44.932Z,100226.52
2022-10-05T13:46:25.118Z,100218.05
2022-10-05T13:49:12.086Z,100224.09
2022-10-05T13:51:53.588Z,100223.58
2022-10-05T13:54:32.812Z,100221.55
2022-10-05T13:57:21.199Z,100216.98
2022-10-05T13:59:58.519Z,100218.48
2022-10-05T14:02:37.047Z,100215.70
2022-10-05T14:05:20.548Z,100211.71
2022-10-05T14:07:55.890Z,100213.17
2022-10-05T14:10:40.161Z,100211.95
2022-10-05T14:13:26.477Z,100211.44
2022-10-05T14:16:09.135Z,100207.27
2022-10-05T14:18:52.473Z,100204.95
2022-10-05T14:21:26.021Z,100203.15
2022-10-05T14:24:32.039Z,100201.53
2022-10-05T14:27:22.346Z,100205.72
2022-10-05T14:30:03.369Z,100208.40
2022-10-05T14:32:49.542Z,100200.88
2022-10-05T14:35:24.089Z,100197.48
2022-10-05T14:38:01.016Z,100199.89
2022-10-05T14:40:36.271Z,100202.28
2022-10-05T14:43:21.752Z,100200.84
2022-10-05T14:46:01.588Z,100199.36
2022-10-05T14:48:44.324Z,100197.61
2022-10-05T14:51:31.799Z,100192.92
2022-10-05T14:54:22.987Z,100188.86
2022-10-05T14:57:06.470Z,100187.30
2022-10-05T14:59:53.852Z,100191.27
2022-10-05T15:02:55.899Z,100188.91
2022-10-05T15:05:32.721Z,100190.16
2022-10-05T15:08:16.023Z,100186.77
2022-10-05T15:11:02.617Z,100177.08
2022-10-05T15:13:38.555Z,100182.05
2022-10-05T15:16:20.060Z,100186.14
2022-10-05T15:19:04.782Z,100188.39
2022-10-05T15:21:56.617Z,100176.94
2022-10-05T15:24:44.120Z,100176.44
2022-10-05T15:27:37.827Z,100178.48
2022-10-05T15:30:18.003Z,100180.13
2022-10-05T15:33:05.508Z,100178.69
2022-10-05T15:36:00.517Z,100175.12
2022-10-05T15:38:41.145Z,100175.83
2022-10-05T15:41:21.138Z,100171.64
2022-10-05T15:47:02.369Z,100169.36
2022-10-05T15:49:40.850Z,100170.17
2022-10-05T15:52:24.077Z,100175.41
2022-10-05T15:55:38.308Z,100175.64
2022-10-05T15:58:35.664Z,100174.21
2022-10-05T16:01:12.016Z,100169.16
2022-10-05T16:03:52.208Z,100165.65
2022-10-05T16:06:56.458Z,100162.02
2022-10-05T16:09:43.574Z,100157.59
2022-10-05T16:12:30.586Z,100154.91
2022-10-05T16:15:16.916Z,100151.98
2022-10-05T16:18:04.498Z,100154.73
2022-10-05T16:20:50.137Z,100150.84
2022-10-05T16:23:34.168Z,100146.95
2022-10-05T16:26:26.875Z,100143.90
2022-10-05T16:29:05.484Z,100148.44
2022-10-05T16:31:47.228Z,100151.88
2022-10-05T16:34:32.151Z,100159.66
2022-10-05T16:37:14.076Z,100165.58
2022-10-05T16:39:57.544Z,100168.41
2022-10-05T16:42:43.180Z,100169.50
2022-10-05T16:45:45.017Z,100167.70
2022-10-05T16:48:26.252Z,100167.98
2022-10-05T16:51:14.955Z,100172.38
2022-10-05T16:53:53.734Z,100177.02
2022-10-05T16:56:29.912Z,100173.91
2022-10-05T16:59:18.153Z,100172.39
2022-10-05T17:02:02.288Z,100172.10
2022-10-05T17:04:46.147Z,100174.14
2022-10-05T17:07:35.214Z,100172.98
2022-10-05T17:10:42.977Z,100173.43
2022-10-05T17:13:32.584Z,100171.45
2022-10-05T17:16:12.118Z,100173.82
2022-10-05T17:19:21.941Z,100176.17
2022-10-05T17:22:00.879Z,100172.55
2022-10-05T17:24:50.153Z,100172.38
2022-10-05T17:27:32.459Z,100170.66
2022-10-05T17:30:23.651Z,100171.86
2022-10-05T17:33:04.734Z,100168.56
2022-10-05T17:35:53.450Z,100167.35
2022-10-05T17:38:42.866Z,100167.69
2022-10-05T17:41:23.630Z,100169.42
2022-10-05T17:44:20.508Z,100165.06
2022-10-05T17:46:56.082Z,100164.52
2022-10-05T17:50:13.412Z,100169.48
2022-10-05T17:53:23.835Z,100173.80
2022-10-05T17:56:06.526Z,100171.95
2022-10-05T17:59:04.807Z,100175.40
2022-10-05T18:01:39.910Z,100173.23
2022-10-05T18:04:42.322Z,100176.00
2022-10-05T18:07:25.655Z,100173.85
2022-10-05T18:10:00.668Z,100172.58
2022-10-05T18:13:12.749Z,100173.95
2022-10-05T18:15:46.052Z,100172.15
2022-10-05T18:18:38.758Z,100172.61
2022-10-05T18:21:31.215Z,100171.32
2022-10-05T18:24:36.942Z,100172.66
2022-10-05T18:27:52.076Z,100169.22
2022-10-05T18:30:27.258Z,100171.52
2022-10-05T18:33:25.329Z,100176.67
2022-10-05T18:36:20.523Z,100172.24
2022-10-05T18:39:04.063Z,100173.27
2022-10-05T18:41:56.291Z,100176.79
2022-10-05T18:44:40.193Z,100179.05
2022-10-05T18:47:23.877Z,100179.21
2022-10-05T18:50:15.383Z,100176.33
2022-10-05T18:53:03.537Z,100175.53
2022-10-05T18:55:46.550Z,100174.06
2022-10-05T18:58:35.992Z,100174.80
2022-10-05T19:01:37.967Z,100176.34
2022-10-05T19:04:29.170Z,100177.60
2022-10-05T19:07:20.785Z,100178.54
2022-10-05T19:10:04.328Z,100175.13
2022-10-05T19:12:50.172Z,100174.05
2022-10-05T19:15:31.904Z,100173.85
2022-10-05T19:18:19.330Z,100177.24
2022-10-05T19:20:59.476Z,100177.61
2022-10-05T19:23:53.804Z,100172.70
2022-10-05T19:26:50.062Z,100176.61
2022-10-05T19:29:35.407Z,100172.31
2022-10-05T19:32:19.712Z,100170.29
2022-10-05T19:35:07.201Z,100168.80
2022-10-05T19:37:53.876Z,100168.94
2022-10-05T19:40:36.630Z,100165.44
2022-10-05T19:43:26.442Z,100166.62
2022-10-05T19:46:19.933Z,100174.03
2022-10-05T19:48:56.813Z,100167.95
2022-10-05T19:51:39.534Z,100167.18
2022-10-05T19:54:24.924Z,100163.14
2022-10-05T19:57:13.226Z,100164.15
2022-10-05T19:59:49.425Z,100163.30
2022-10-05T20:02:28.592Z,100168.40
2022-10-05T20:05:09.342Z,100173.20
2022-10-05T20:07:41.832Z,100172.83
2022-10-05T20:10:30.894Z,100174.87
2022-10-05T20:13:17.479Z,100174.09
2022-10-05T20:16:27.094Z,100178.11
2022-10-05T20:19:17.334Z,100184.08
2022-10-05T20:21:51.641Z,100181.67
2022-10-05T20:24:25.793Z,100185.40
2022-10-05T20:27:16.116Z,100187.15
2022-10-05T20:29:48.588Z,100190.65
2022-10-05T20:32:20.717Z,100186.02
2022-10-05T20:34:55.574Z,100188.83
2022-10-05T20:37:28.063Z,100194.65
2022-10-05T20:40:00.410Z,100194.33
2022-10-05T20:42:32.502Z,100193.36
2022-10-05T20:45:06.455Z,100198.23
2022-10-05T20:47:39.037Z,100192.73
2022-10-05T20:50:12.621Z,100189.23
2022-10-05T20:52:44.721Z,100186.10
2022-10-05T20:55:15.210Z,100190.52
2022-10-05T20:57:48.682Z,100192.73
2022-10-05T21:00:20.601Z,100188.02
2022-10-05T21:02:52.658Z,100191.42
2022-10-05T21:05:23.100Z,100192.95
2022-10-05T21:07:55.045Z,100194.98
2022-10-05T21:10:25.462Z,100195.52
2022-10-05T21:12:57.566Z,100194.48
2022-10-05T21:15:29.505Z,100195.15
2022-10-05T21:18:01.788Z,100203.15
2022-10-05T21:20:34.623Z,100200.14
2022-10-05T21:23:06.385Z,100202.67
2022-10-05T21:25:39.012Z,100207.25
2022-10-05T21:28:11.275Z,100209.64
2022-10-05T21:30:43.527Z,100212.44
2022-10-05T21:33:15.415Z,100212.68
2022-10-05T21:35:48.028Z,100214.36
2022-10-05T21:38:20.200Z,100215.66
2022-10-05T21:40:52.156Z,100214.54
2022-10-05T21:43:22.565Z,100214.83
2022-10-05T21:45:55.204Z,100217.67
2022-10-05T21:48:27.756Z,100222.27
2022-10-05T21:51:00.633Z,100223.35
2022-10-05T21:53:34.903Z,100225.54
2022-10-05T21:56:10.636Z,100222.78
2022-10-05T21:58:45.500Z,100225.53
2022-10-05T22:01:22.426Z,100228.20
2022-10-05T22:03:54.994Z,100228.30
2022-10-05T22:06:27.315Z,100228.30
2022-10-05T22:08:58.151Z,100228.52
2022-10-05T22:11:30.993Z,100228.58
2022-10-05T22:14:03.217Z,100230.60
2022-10-05T22:16:38.713Z,100229.27
2022-10-05T22:19:17.462Z,100231.98
2022-10-05T22:21:49.436Z,100229.38
2022-10-05T22:24:19.851Z,100232.65
2022-10-05T22:26:52.862Z,100230.13
2022-10-05T22:29:24.784Z,100236.44
2022-10-05T22:31:59.209Z,100240.03
2022-10-05T22:34:31.327Z,100243.82
2022-10-05T22:37:02.202Z,100250.89
2022-10-05T22:39:34.020Z,100247.42
2022-10-05T22:42:06.845Z,100248.48
2022-10-05T22:44:39.147Z,100253.13
2022-10-05T22:47:11.454Z,100255.14
2022-10-05T22:49:43.287Z,100262.48
2022-10-05T22:52:15.197Z,100264.19
2022-10-05T22:54:45.685Z,100266.99
2022-10-05T22:57:17.809Z,100270.55
2022-10-05T22:59:49.727Z,100273.36
2022-10-05T23:02:21.656Z,100270.50
2022-10-05T23:04:52.233Z,100278.09
2022-10-05T23:07:24.395Z,100280.38
2022-10-05T23:09:54.904Z,100283.27
2022-10-05T23:12:26.717Z,100291.09
2022-10-05T23:14:58.527Z,100289.59
2022-10-05T23:17:33.540Z,100295.82
2022-10-05T23:20:06.481Z,100299.73
2022-10-05T23:22:41.366Z,100300.05
2022-10-05T23:25:14.085Z,100303.91
2022-10-05T23:27:46.120Z,100317.45
2022-10-05T23:30:17.998Z,100316.85
2022-10-05T23:32:49.815Z,100316.24
2022-10-05T23:35:21.826Z,100325.91
2022-10-05T23:37:53.998Z,100329.40
2022-10-05T23:40:24.375Z,100330.20
2022-10-05T23:42:56.200Z,100334.66
2022-10-05T23:45:27.996Z,100340.36
2022-10-05T23:47:59.909Z,100342.13
2022-10-05T23:50:30.446Z,100346.23
2022-10-05T23:53:02.364Z,100346.27
2022-10-05T23:55:32.926Z,100349.66
2022-10-05T23:58:05.185Z,100353.70
